Time;durP1;ratioP1;P1;durP2;ratioP2;P2;SDS_P1;SDS_P2;PMS_P1;PMS_P2;Temp;Humidity;BMP_temperature;BMP_pressure;BME280_temperature;BME280_humidity;BME280_pressure;Samples;Min_cycle;Max_cycle;Signal;HPM_P1;HPM_P2
2023/09/28 00:01:35;;;;;;;5.80;3.55;;;;;;;20.24;68.22;100016.13;5040648;28;20390;-66
2023/09/28 00:04:01;;;;;;;8.80;4.35;;;;;;;20.30;67.93;100013.38;5041058;28;20037;-66
2023/09/28 00:06:27;;;;;;;11.10;4.95;;;;;;;20.34;67.97;100005.69;5040726;28;20064;-66
2023/09/28 00:08:52;;;;;;;6.85;4.43;;;;;;;20.14;68.35;100016.59;5039556;28;20049;-66
2023/09/28 00:11:18;;;;;;;6.45;3.92;;;;;;;20.02;69.05;100007.59;5040958;28;20057;-66
2023/09/28 00:13:43;;;;;;;6.43;4.00;;;;;;;20.03;68.44;100007.38;5040318;28;20387;-66
2023/09/28 00:16:09;;;;;;;7.50;4.32;;;;;;;19.87;69.53;100001.69;5040284;28;20033;-66
2023/09/28 00:18:34;;;;;;;8.77;4.38;;;;;;;19.72;70.30;99999.25;5040226;28;20049;-68
2023/09/28 00:21:01;;;;;;;8.57;4.10;;;;;;;19.68;70.53;99998.03;5039668;28;20581;-68
2023/09/28 00:23:26;;;;;;;7.75;4.47;;;;;;;19.83;70.16;99995.09;5039423;28;20056;-66
2023/09/28 00:25:52;;;;;;;15.48;6.13;;;;;;;19.82;70.00;99998.84;5040431;28;20333;-68
2023/09/28 00:28:17;;;;;;;12.48;5.80;;;;;;;19.90;69.46;100001.25;5040364;28;20037;-68
2023/09/28 00:30:44;;;;;;;13.82;6.78;;;;;;;19.96;68.80;99995.00;5040211;28;20071;-69
2023/09/28 00:33:09;;;;;;;12.02;6.25;;;;;;;19.90;69.19;99993.19;5039137;28;20099;-66
2023/09/28 00:35:35;;;;;;;12.00;6.95;;;;;;;19.77;69.43;99986.88;5040118;28;20049;-68
2023/09/28 00:38:00;;;;;;;13.05;6.65;;;;;;;19.78;69.55;99990.38;5041020;28;20042;-68
2023/09/28 00:42:51;;;;;;;13.73;7.57;;;;;;;19.71;69.90;99989.56;5041323;28;20044;-67
2023/09/28 00:45:19;;;;;;;15.20;8.95;;;;;;;19.62;69.63;99986.31;5040996;28;20036;-66
2023/09/28 00:47:45;;;;;;;16.38;9.20;;;;;;;19.63;69.74;99981.75;5039763;28;20037;-66
2023/09/28 00:50:15;;;;;;;18.65;10.07;;;;;;;19.74;69.40;99979.19;5039866;28;20067;-65
2023/09/28 00:52:43;;;;;;;21.55;11.65;;;;;;;19.83;69.36;99989.72;5039750;28;20057;-65
2023/09/28 00:55:10;;;;;;;17.25;10.20;;;;;;;19.69;69.11;99987.09;5040206;28;20116;-66
2023/09/28 00:57:37;;;;;;;21.58;11.73;;;;;;;19.53;69.40;99979.53;5040655;28;20036;-66
2023/09/28 01:00:18;;;;;;;20.17;11.25;;;;;;;19.46;69.69;99987.59;5039178;28;20033;-68
2023/09/28 01:02:51;;;;;;;16.92;9.20;;;;;;;19.46;69.43;99992.13;5040343;28;20081;-65
2023/09/28 01:05:33;;;;;;;15.77;8.00;;;;;;;19.36;68.82;99997.13;5040219;28;20045;-68
2023/09/28 01:08:18;;;;;;;14.73;7.60;;;;;;;19.17;70.44;99989.97;5040020;28;20048;-66
2023/09/28 01:10:45;;;;;;;10.55;6.97;;;;;;;19.13;70.70;99989.59;5039700;28;20073;-66
2023/09/28 01:13:12;;;;;;;11.88;6.60;;;;;;;19.11;71.40;99992.47;5039973;28;20043;-68
2023/09/28 01:15:42;;;;;;;9.13;5.45;;;;;;;19.22;70.96;99995.53;5040020;28;20034;-66
2023/09/28 01:18:15;;;;;;;12.13;5.63;;;;;;;19.28;70.22;99990.16;5039035;28;20068;-66
2023/09/28 01:20:43;;;;;;;11.48;5.38;;;;;;;19.35;69.65;99993.63;5039896;28;20072;-66
2023/09/28 01:23:09;;;;;;;9.93;5.38;;;;;;;19.29;70.25;99989.09;5039669;28;20033;-68
2023/09/28 01:25:35;;;;;;;8.43;4.85;;;;;;;19.27;70.62;99993.03;5039536;28;20464;-68
2023/09/28 01:28:01;;;;;;;8.10;4.60;;;;;;;19.27;70.96;99987.69;5048318;28;20041;-68
2023/09/28 01:30:27;;;;;;;8.63;3.92;;;;;;;19.23;70.94;99991.81;5048941;28;20218;-69
2023/09/28 01:32:53;;;;;;;5.90;4.32;;;;;;;19.19;71.46;99983.38;5042084;28;20037;-68
2023/09/28 01:35:19;;;;;;;7.57;4.32;;;;;;;19.13;71.68;99981.53;5043170;28;20030;-65
2023/09/28 01:38:09;;;;;;;8.73;4.28;;;;;;;19.10;72.12;99980.09;5052442;28;20033;-68
2023/09/28 01:40:35;;;;;;;10.88;5.07;;;;;;;19.02;72.70;99985.69;5043845;28;20044;-66
2023/09/28 01:43:00;;;;;;;8.50;4.72;;;;;;;18.91;73.15;99988.19;5043900;28;20227;-67
2023/09/28 01:45:26;;;;;;;9.32;5.50;;;;;;;18.89;73.54;99987.59;5043651;28;20033;-66
2023/09/28 01:47:52;;;;;;;9.45;5.10;;;;;;;18.90;73.26;99986.56;5043251;28;20131;-65
2023/09/28 01:50:18;;;;;;;9.02;4.88;;;;;;;18.90;72.92;99982.00;5043316;28;20045;-66
2023/09/28 01:52:44;;;;;;;9.32;4.70;;;;;;;18.83;72.78;99980.38;5042566;28;20075;-68
2023/09/28 01:55:09;;;;;;;11.95;5.45;;;;;;;18.78;73.11;99991.75;5042555;28;20315;-66
2023/09/28 01:57:35;;;;;;;7.40;4.82;;;;;;;18.75;73.23;99998.34;5042319;28;20080;-68
2023/09/28 02:00:00;;;;;;;11.00;5.32;;;;;;;18.73;73.72;99988.84;5041154;28;20335;-66
2023/09/28 02:02:26;;;;;;;7.68;4.93;;;;;;;18.82;73.42;99990.28;5043086;28;20021;-68
2023/09/28 02:04:52;;;;;;;8.82;4.78;;;;;;;18.87;72.97;99989.66;5042540;28;20031;-65
2023/09/28 02:07:18;;;;;;;12.73;6.47;;;;;;;18.65;73.40;99986.38;5042465;28;20041;-65
2023/09/28 02:09:44;;;;;;;14.07;6.10;;;;;;;18.48;74.56;99985.94;5047193;28;20052;-65
2023/09/28 02:12:10;;;;;;;11.38;5.82;;;;;;;18.66;74.20;99983.47;5045693;28;20053;-66
2023/09/28 02:14:36;;;;;;;8.88;4.68;;;;;;;18.83;73.54;99994.63;5042343;28;20045;-66
2023/09/28 02:17:01;;;;;;;6.85;4.93;;;;;;;18.92;73.11;99996.03;5042119;28;20040;-68
2023/09/28 02:19:27;;;;;;;10.50;5.47;;;;;;;18.91;73.54;99989.03;5049561;28;20053;-66
2023/09/28 02:21:52;;;;;;;11.80;5.95;;;;;;;18.91;73.32;99994.41;5051522;28;20044;-68
2023/09/28 02:24:18;;;;;;;10.88;6.25;;;;;;;18.89;73.95;99998.31;5042839;28;20400;-68
2023/09/28 02:26:44;;;;;;;17.95;7.25;;;;;;;18.95;73.59;100006.34;5041284;28;20047;-68
2023/09/28 02:29:11;;;;;;;15.60;7.70;;;;;;;18.95;73.72;100001.00;5042720;28;20339;-68
2023/09/28 02:31:40;;;;;;;15.82;8.35;;;;;;;19.02;73.56;99995.59;5042858;28;20041;-68
2023/09/28 02:34:07;;;;;;;17.98;7.68;;;;;;;19.07;72.76;99993.13;5050369;28;20112;-68
2023/09/28 02:36:32;;;;;;;12.68;7.05;;;;;;;19.11;72.84;100000.53;5042876;28;20218;-68
2023/09/28 02:38:58;;;;;;;14.23;6.63;;;;;;;19.10;72.67;99992.69;5041930;28;20064;-68
2023/09/28 02:41:24;;;;;;;13.68;6.55;;;;;;;19.10;73.03;99990.00;5041977;28;20049;-65
2023/09/28 02:43:50;;;;;;;13.60;7.18;;;;;;;19.20;72.91;99997.63;5050927;28;20071;-65
2023/09/28 02:46:15;;;;;;;14.20;7.13;;;;;;;19.25;72.38;99995.94;5041464;28;20025;-66
2023/09/28 02:48:40;;;;;;;12.85;6.70;;;;;;;19.31;72.56;99992.41;5051163;28;20337;-65
2023/09/28 02:51:09;;;;;;;11.23;6.70;;;;;;;19.36;72.38;99991.75;5041700;28;20373;-68
2023/09/28 02:53:35;;;;;;;10.23;6.22;;;;;;;19.39;72.20;100000.22;5041827;28;20035;-66
2023/09/28 02:56:02;;;;;;;11.70;6.43;;;;;;;19.44;72.11;99999.59;5041872;28;20227;-66
2023/09/28 02:58:27;;;;;;;10.23;5.68;;;;;;;19.42;72.45;100004.34;5043241;28;20377;-66
2023/09/28 03:00:55;;;;;;;9.75;5.15;;;;;;;19.51;72.05;100002.25;5042080;28;20041;-66
2023/09/28 03:03:21;;;;;;;10.40;5.35;;;;;;;19.51;72.29;100011.13;5041911;28;20068;-68
2023/09/28 03:05:46;;;;;;;11.32;6.28;;;;;;;19.44;72.53;100004.94;5043085;28;20021;-68
2023/09/28 03:08:14;;;;;;;11.65;5.82;;;;;;;19.41;72.73;100003.53;5042145;28;20287;-65
2023/09/28 03:10:43;;;;;;;8.10;5.22;;;;;;;19.33;73.26;100009.13;5051209;28;20037;-66
2023/09/28 03:13:08;;;;;;;10.23;5.25;;;;;;;19.32;73.55;100006.66;5042621;28;20099;-66
2023/09/28 03:15:34;;;;;;;9.55;5.20;;;;;;;19.32;73.74;100004.78;5042170;28;20299;-65
2023/09/28 03:17:59;;;;;;;8.40;5.00;;;;;;;19.34;73.91;100009.94;5049018;28;20045;-66
2023/09/28 03:20:26;;;;;;;11.10;5.57;;;;;;;19.06;74.43;99999.50;5040834;28;20335;-68
2023/09/28 03:22:52;;;;;;;11.20;6.70;;;;;;;18.99;74.48;100001.41;5041571;28;20041;-66
2023/09/28 03:25:20;;;;;;;15.45;6.68;;;;;;;18.95;74.87;100009.03;5041696;28;20035;-66
2023/09/28 03:27:49;;;;;;;11.32;6.07;;;;;;;18.95;74.91;100008.22;5041440;28;20076;-65
2023/09/28 03:30:16;;;;;;;9.82;5.05;;;;;;;18.98;74.62;100014.00;5040798;28;20056;-68
2023/09/28 03:32:42;;;;;;;9.55;5.30;;;;;;;19.08;74.16;100008.19;5041375;28;20260;-68
2023/09/28 03:35:11;;;;;;;10.05;5.43;;;;;;;19.07;73.86;100003.84;5040961;28;20035;-66
2023/09/28 03:37:37;;;;;;;8.43;4.63;;;;;;;18.99;73.85;100006.75;5040763;28;20244;-68
2023/09/28 03:40:10;;;;;;;7.63;4.82;;;;;;;18.77;74.67;99995.47;5040434;28;20044;-68
2023/09/28 03:42:39;;;;;;;7.30;4.47;;;;;;;18.79;75.00;100004.13;5039755;28;20083;-67
2023/09/28 03:45:08;;;;;;;8.93;4.32;;;;;;;18.76;74.98;100004.53;5041275;28;20045;-68
2023/09/28 03:47:35;;;;;;;7.20;4.78;;;;;;;18.65;75.76;99997.09;5040540;28;20099;-68
2023/09/28 03:50:01;;;;;;;9.80;4.57;;;;;;;18.51;76.64;99999.75;5041090;28;20342;-66
2023/09/28 03:52:26;;;;;;;6.80;4.90;;;;;;;18.67;76.36;100011.13;5041213;28;20094;-66
2023/09/28 03:54:52;;;;;;;9.65;4.38;;;;;;;18.80;75.58;100003.91;5040664;28;20066;-65
2023/09/28 03:57:17;;;;;;;13.70;4.72;;;;;;;18.90;75.36;100008.03;5040973;28;20098;-68
2023/09/28 03:59:43;;;;;;;7.57;4.70;;;;;;;18.99;75.58;100015.63;5040553;28;20048;-65
2023/09/28 04:02:08;;;;;;;9.40;4.93;;;;;;;18.95;75.38;100018.94;5040377;28;20025;-68
2023/09/28 04:04:34;;;;;;;11.35;5.55;;;;;;;19.10;74.96;100017.66;5040829;28;20067;-65
2023/09/28 04:06:59;;;;;;;9.23;4.95;;;;;;;19.16;74.83;100015.19;5041063;28;20058;-65
2023/09/28 04:09:25;;;;;;;9.02;5.10;;;;;;;19.22;74.47;100020.53;5040613;28;20063;-68
2023/09/28 04:11:50;;;;;;;12.00;4.78;;;;;;;19.17;74.77;100014.13;5039903;28;20079;-68
2023/09/28 04:14:16;;;;;;;12.55;5.07;;;;;;;19.26;74.63;100021.75;5040369;28;20325;-66
2023/09/28 04:16:41;;;;;;;9.77;4.70;;;;;;;19.29;74.91;100017.81;5040487;28;20029;-66
2023/09/28 04:19:07;;;;;;;11.07;5.10;;;;;;;19.32;74.81;100022.75;5040590;28;20067;-68
2023/09/28 04:21:33;;;;;;;12.45;5.00;;;;;;;19.20;75.35;100021.78;5040477;28;20035;-66
2023/09/28 04:23:59;;;;;;;11.70;4.82;;;;;;;19.34;75.05;100021.50;5040761;28;20155;-68
2023/09/28 04:26:24;;;;;;;12.32;5.80;;;;;;;19.27;75.19;100027.94;5040509;28;20037;-66
2023/09/28 04:28:51;;;;;;;10.27;5.18;;;;;;;19.32;75.06;100017.41;5040351;28;20037;-65
2023/09/28 04:31:18;;;;;;;24.95;6.30;;;;;;;19.30;75.29;100027.53;5040477;28;20060;-65
2023/09/28 04:33:43;;;;;;;12.32;5.55;;;;;;;19.27;75.36;100027.94;5040412;28;20226;-68
2023/09/28 04:36:09;;;;;;;13.18;6.60;;;;;;;18.96;76.55;100034.00;5040113;28;20036;-68
2023/09/28 04:38:34;;;;;;;19.77;5.85;;;;;;;19.06;76.38;100045.13;5040906;28;20314;-66
2023/09/28 04:41:03;;;;;;;13.50;5.20;;;;;;;19.01;76.93;100039.56;5040275;28;20040;-66
2023/09/28 04:43:29;;;;;;;22.80;5.45;;;;;;;19.15;76.73;100043.88;5040706;28;20108;-65
2023/09/28 04:45:55;;;;;;;25.60;6.97;;;;;;;19.27;76.21;100042.19;5039728;28;20373;-68
2023/09/28 04:48:21;;;;;;;15.32;5.05;;;;;;;19.42;75.67;100045.44;5040220;28;20037;-66
2023/09/28 04:50:47;;;;;;;11.38;4.80;;;;;;;19.46;75.74;100049.34;5044039;28;20040;-66
2023/09/28 04:53:12;;;;;;;14.95;4.80;;;;;;;19.52;74.59;100053.09;5044179;28;20037;-68
2023/09/28 04:55:38;;;;;;;12.23;4.47;;;;;;;19.57;74.03;100055.13;5040376;28;20037;-66
2023/09/28 04:58:04;;;;;;;10.10;4.75;;;;;;;19.60;74.41;100058.22;5040770;28;20037;-68
2023/09/28 05:00:29;;;;;;;13.35;5.00;;;;;;;19.67;74.35;100067.06;5039639;28;20033;-66
2023/09/28 05:02:54;;;;;;;12.05;5.40;;;;;;;19.76;74.20;100065.78;5040146;28;20370;-65
2023/09/28 05:05:20;;;;;;;10.60;5.07;;;;;;;19.76;73.89;100059.59;5040075;28;20037;-68
2023/09/28 05:07:46;;;;;;;9.27;5.10;;;;;;;19.81;73.85;100058.97;5040368;28;20112;-68
2023/09/28 05:10:11;;;;;;;14.02;4.82;;;;;;;19.82;73.97;100058.75;5043442;28;20045;-65
2023/09/28 05:12:37;;;;;;;11.63;5.55;;;;;;;19.70;73.63;100055.06;5044659;28;20068;-68
2023/09/28 05:15:03;;;;;;;8.82;4.45;;;;;;;19.68;74.17;100060.66;5044536;28;20377;-66
2023/09/28 05:17:29;;;;;;;12.95;5.43;;;;;;;19.70;74.12;100065.81;5044206;28;20227;-66
2023/09/28 05:19:54;;;;;;;10.10;5.45;;;;;;;19.68;74.14;100066.03;5044790;28;20343;-66
2023/09/28 05:22:20;;;;;;;14.25;5.57;;;;;;;19.68;74.10;100068.72;5043562;28;20049;-65
2023/09/28 05:24:46;;;;;;;15.68;5.07;;;;;;;19.68;74.57;100065.22;5043921;28;20037;-65
2023/09/28 05:27:11;;;;;;;13.90;5.35;;;;;;;19.75;74.61;100060.63;5044831;28;20298;-66
2023/09/28 05:29:37;;;;;;;13.00;5.75;;;;;;;19.88;74.36;100063.28;5043362;28;20118;-68
2023/09/28 05:32:03;;;;;;;10.60;5.30;;;;;;;19.88;73.90;100073.22;5043570;28;20060;-68
2023/09/28 05:34:29;;;;;;;11.75;5.43;;;;;;;19.92;73.72;100072.56;5043522;28;20270;-65
2023/09/28 05:36:54;;;;;;;12.70;5.00;;;;;;;20.05;73.21;100075.19;5052881;28;20033;-68
2023/09/28 05:39:19;;;;;;;11.98;4.80;;;;;;;20.11;73.44;100075.34;5056626;28;20044;-67
2023/09/28 05:41:45;;;;;;;8.90;4.70;;;;;;;20.20;72.78;100074.06;5056146;28;20031;-65
2023/09/28 05:44:10;;;;;;;12.05;5.43;;;;;;;20.23;72.04;100073.63;5055854;28;20116;-66
2023/09/28 05:46:36;;;;;;;12.60;4.38;;;;;;;20.24;72.12;100080.66;5056068;28;20032;-68
2023/09/28 05:49:02;;;;;;;18.52;5.38;;;;;;;20.29;72.28;100078.13;5055317;28;20044;-68
2023/09/28 05:51:28;;;;;;;11.35;5.03;;;;;;;20.34;72.30;100070.25;5056245;28;20318;-68
2023/09/28 05:53:53;;;;;;;13.73;6.28;;;;;;;20.35;73.15;100074.56;5055835;28;20315;-66
2023/09/28 05:56:19;;;;;;;14.65;5.03;;;;;;;20.37;72.61;100076.00;5055138;28;20114;-64
2023/09/28 05:58:44;;;;;;;20.80;5.78;;;;;;;20.42;71.75;100086.16;5055883;28;20115;-65
2023/09/28 06:01:19;;;;;;;15.48;5.10;;;;;;;20.39;71.95;100082.03;5054190;28;20040;-63
2023/09/28 06:03:44;;;;;;;13.60;5.28;;;;;;;20.30;72.03;100082.47;5057602;28;20033;-65
2023/09/28 06:06:16;;;;;;;8.90;4.53;;;;;;;20.20;72.99;100082.94;5058260;28;20372;-64
2023/09/28 06:08:43;;;;;;;8.52;4.55;;;;;;;20.07;73.80;100081.16;5057686;28;20044;-66
2023/09/28 06:11:15;;;;;;;9.07;5.30;;;;;;;20.14;73.46;100081.13;5058127;28;20068;-66
2023/09/28 06:13:42;;;;;;;7.03;4.87;;;;;;;20.12;73.96;100087.75;5058175;28;20104;-66
2023/09/28 06:16:12;;;;;;;8.80;4.07;;;;;;;20.16;73.73;100092.50;5057575;28;20037;-66
2023/09/28 06:18:40;;;;;;;8.20;4.70;;;;;;;20.16;73.56;100080.91;5057622;28;20351;-63
2023/09/28 06:21:06;;;;;;;10.77;4.55;;;;;;;20.27;73.37;100089.09;5057439;28;20063;-66
2023/09/28 06:23:32;;;;;;;10.20;5.15;;;;;;;20.40;73.70;100090.91;5057881;28;20046;-69
2023/09/28 06:25:57;;;;;;;8.65;4.95;;;;;;;20.49;73.12;100084.22;5056027;28;20095;-64
2023/09/28 06:28:26;;;;;;;9.40;5.40;;;;;;;20.46;73.27;100079.28;5058423;28;20059;-64
2023/09/28 06:30:55;;;;;;;9.85;5.38;;;;;;;20.60;72.98;100078.16;5057156;28;20036;-66
2023/09/28 06:33:22;;;;;;;11.07;4.65;;;;;;;20.81;72.77;100087.72;5057548;28;20040;-64
2023/09/28 06:35:48;;;;;;;7.57;4.00;;;;;;;20.91;71.78;100093.44;5057842;28;20029;-64
2023/09/28 06:38:13;;;;;;;12.00;4.68;;;;;;;20.89;71.67;100089.31;5057477;28;20219;-66
2023/09/28 06:40:41;;;;;;;8.75;5.00;;;;;;;20.79;71.79;100099.72;5058303;28;20039;-63
2023/09/28 06:43:06;;;;;;;7.88;4.65;;;;;;;20.84;71.47;100102.63;5064073;28;20067;-64
2023/09/28 06:45:33;;;;;;;9.30;4.45;;;;;;;20.83;71.67;100092.88;5065833;28;20028;-64
2023/09/28 06:47:59;;;;;;;11.45;4.57;;;;;;;20.92;71.18;100096.94;5057116;28;20100;-66
2023/09/28 06:50:25;;;;;;;13.07;5.00;;;;;;;21.12;70.75;100088.69;5058230;28;20045;-66
2023/09/28 06:52:51;;;;;;;11.15;4.85;;;;;;;21.22;70.70;100092.53;5057797;28;20041;-66
2023/09/28 06:55:17;;;;;;;16.58;8.85;;;;;;;21.25;70.66;100093.97;5057528;28;20033;-64
2023/09/28 06:57:43;;;;;;;23.02;8.68;;;;;;;21.37;69.38;100100.25;5057763;28;20068;-66
2023/09/28 07:00:09;;;;;;;10.45;4.95;;;;;;;21.52;68.69;100098.03;5057247;28;20033;-64
2023/09/28 07:02:37;;;;;;;17.17;4.68;;;;;;;21.59;67.80;100097.94;5057609;28;20064;-66
2023/09/28 07:05:03;;;;;;;9.90;4.07;;;;;;;21.62;67.82;100092.09;5058247;28;20031;-66
2023/09/28 07:07:30;;;;;;;7.80;3.88;;;;;;;21.72;67.13;100095.09;5058158;28;20040;-66
2023/09/28 07:09:56;;;;;;;9.20;4.60;;;;;;;21.72;67.36;100100.47;5057874;28;20048;-66
2023/09/28 07:12:22;;;;;;;14.13;4.90;;;;;;;21.76;66.03;100107.06;5057485;28;20040;-66
2023/09/28 07:14:48;;;;;;;9.18;4.40;;;;;;;21.78;65.27;100104.13;5057745;28;20351;-65
2023/09/28 07:17:14;;;;;;;16.42;5.05;;;;;;;21.77;64.57;100107.88;5057464;28;20033;-64
2023/09/28 07:19:39;;;;;;;22.25;13.50;;;;;;;21.86;64.72;100104.69;5057976;28;20228;-64
2023/09/28 07:22:05;;;;;;;14.18;5.85;;;;;;;21.92;63.76;100116.44;5057551;28;20074;-65
2023/09/28 07:24:33;;;;;;;16.33;4.70;;;;;;;21.95;63.51;100107.88;5058134;28;20319;-66
2023/09/28 07:26:59;;;;;;;30.80;7.95;;;;;;;21.99;62.17;100104.50;5057595;28;20096;-64
2023/09/28 07:29:25;;;;;;;14.43;7.60;;;;;;;22.01;62.58;100111.56;5058089;28;20045;-63
2023/09/28 07:31:50;;;;;;;16.50;6.90;;;;;;;22.01;62.25;100115.06;5056381;28;20035;-66
2023/09/28 07:34:15;;;;;;;11.02;6.22;;;;;;;22.06;62.20;100109.84;5056577;28;20052;-64
2023/09/28 07:36:41;;;;;;;13.52;7.90;;;;;;;22.07;62.67;100119.59;5056148;28;20400;-64
2023/09/28 07:39:06;;;;;;;15.07;8.27;;;;;;;22.14;62.81;100114.94;5057569;28;20043;-64
2023/09/28 07:41:32;;;;;;;13.55;4.80;;;;;;;22.13;62.08;100112.47;5057215;28;20270;-66
2023/09/28 07:43:57;;;;;;;9.60;5.03;;;;;;;22.30;61.66;100113.47;5056862;28;20037;-66
2023/09/28 07:46:23;;;;;;;7.05;4.20;;;;;;;22.41;61.20;100119.94;5056665;28;20039;-66
2023/09/28 07:48:48;;;;;;;7.10;4.20;;;;;;;22.48;61.02;100108.00;5057142;28;20025;-64
2023/09/28 07:51:13;;;;;;;9.75;4.40;;;;;;;22.54;60.58;100108.94;5055136;28;20024;-66
2023/09/28 07:53:39;;;;;;;12.82;7.47;;;;;;;22.55;60.77;100105.19;5053792;28;20037;-66
2023/09/28 07:56:04;;;;;;;8.73;5.10;;;;;;;22.62;60.58;100106.72;5054083;28;20146;-66
2023/09/28 07:58:30;;;;;;;9.80;3.78;;;;;;;22.71;59.85;100103.69;5054487;28;20040;-64
2023/09/28 08:00:55;;;;;;;14.48;4.90;;;;;;;22.73;58.90;100107.81;5054178;28;20037;-66
2023/09/28 08:03:21;;;;;;;10.48;5.85;;;;;;;22.78;59.22;100102.53;5054420;28;20035;-63
2023/09/28 08:05:47;;;;;;;9.48;4.53;;;;;;;22.82;59.58;100102.91;5054479;28;20036;-64
2023/09/28 08:08:12;;;;;;;6.18;3.63;;;;;;;22.83;58.28;100105.38;5053255;28;20047;-66
2023/09/28 08:10:38;;;;;;;11.75;4.43;;;;;;;22.87;58.51;100106.56;5052509;28;20368;-66
2023/09/28 08:13:03;;;;;;;13.85;4.25;;;;;;;22.89;58.47;100107.19;5053081;28;20040;-66
2023/09/28 08:15:29;;;;;;;13.32;4.07;;;;;;;22.92;58.19;100106.72;5052556;28;20343;-66
2023/09/28 08:17:55;;;;;;;10.82;4.65;;;;;;;22.93;58.95;100102.97;5053114;28;20033;-64
2023/09/28 08:20:20;;;;;;;10.10;5.13;;;;;;;22.94;57.73;100103.78;5053159;28;20327;-66
2023/09/28 08:22:48;;;;;;;11.38;5.75;;;;;;;22.84;58.78;100107.03;5053760;28;20090;-64
2023/09/28 08:25:14;;;;;;;11.57;4.47;;;;;;;22.91;58.32;100099.69;5053170;28;20385;-64
2023/09/28 08:27:42;;;;;;;9.40;4.30;;;;;;;22.91;58.90;100101.56;5052540;28;20037;-65
2023/09/28 08:30:08;;;;;;;9.82;4.47;;;;;;;22.93;58.12;100108.38;5052319;28;20045;-63
2023/09/28 08:32:33;;;;;;;7.35;4.40;;;;;;;22.84;58.62;100112.44;5053737;28;20045;-66
2023/09/28 08:34:58;;;;;;;14.20;4.13;;;;;;;22.85;58.48;100108.69;5051403;28;20041;-66
2023/09/28 08:37:24;;;;;;;8.80;3.80;;;;;;;22.86;58.37;100104.09;5052254;28;20071;-66
2023/09/28 08:39:51;;;;;;;7.82;3.47;;;;;;;22.91;58.47;100102.38;5051226;28;20146;-66
2023/09/28 08:42:23;;;;;;;13.70;4.15;;;;;;;22.98;58.67;100099.56;5054547;28;20041;-66
2023/09/28 08:44:58;;;;;;;8.73;4.30;;;;;;;23.06;58.21;100092.97;5057846;28;20264;-64
2023/09/28 08:47:24;;;;;;;6.93;3.72;;;;;;;23.05;57.73;100091.34;5056484;28;20682;-66
2023/09/28 08:49:51;;;;;;;7.93;3.97;;;;;;;23.13;57.60;100096.38;5056253;28;20355;-66
2023/09/28 08:52:17;;;;;;;10.77;4.65;;;;;;;23.18;57.41;100099.19;5054650;28;20067;-64
2023/09/28 08:54:43;;;;;;;11.25;4.15;;;;;;;23.19;56.82;100090.03;5054962;28;20029;-64
2023/09/28 08:57:12;;;;;;;7.68;3.88;;;;;;;23.25;56.77;100089.09;5055952;28;20083;-64
2023/09/28 08:59:39;;;;;;;7.80;3.80;;;;;;;23.28;55.73;100087.81;5055469;28;20112;-64
2023/09/28 09:02:05;;;;;;;15.60;4.63;;;;;;;23.31;56.75;100088.16;5056491;28;20059;-66
2023/09/28 09:04:37;;;;;;;15.35;4.40;;;;;;;23.37;60.42;100089.91;5056144;28;20362;-66
2023/09/28 09:07:05;;;;;;;8.57;4.18;;;;;;;23.29;59.05;100087.56;5055544;28;20039;-66
2023/09/28 09:09:32;;;;;;;6.03;3.30;;;;;;;23.35;58.63;100083.09;5055161;28;20354;-66
2023/09/28 09:12:00;;;;;;;6.60;4.05;;;;;;;23.50;62.92;100080.72;5055746;28;20112;-65
2023/09/28 09:14:28;;;;;;;6.50;4.47;;;;;;;23.51;60.64;100082.34;5055171;28;20040;-64
2023/09/28 09:16:54;;;;;;;5.60;3.72;;;;;;;23.45;63.77;100078.72;5056281;28;20223;-66
2023/09/28 09:19:19;;;;;;;7.00;3.65;;;;;;;23.42;61.11;100068.41;5056591;28;20037;-66
2023/09/28 09:21:45;;;;;;;9.30;4.35;;;;;;;23.53;61.30;100077.53;5055911;28;20033;-67
2023/09/28 09:24:14;;;;;;;7.55;4.35;;;;;;;23.59;59.16;100073.91;5055757;28;20036;-66
2023/09/28 09:26:45;;;;;;;5.72;3.75;;;;;;;23.78;58.55;100075.38;5055738;28;20060;-64
2023/09/28 09:29:12;;;;;;;6.38;3.70;;;;;;;23.88;56.35;100070.16;5055419;28;20060;-66
2023/09/28 09:31:47;;;;;;;8.70;4.07;;;;;;;23.94;56.22;100067.59;5055385;28;20033;-64
2023/09/28 09:34:17;;;;;;;7.78;3.33;;;;;;;23.95;55.70;100058.41;5054996;28;20041;-65
2023/09/28 09:36:42;;;;;;;11.07;3.60;;;;;;;23.94;55.39;100059.47;5055142;28;20226;-66
2023/09/28 09:39:21;;;;;;;6.95;3.38;;;;;;;23.87;54.44;100054.19;5055066;28;20033;-66
2023/09/28 09:41:49;;;;;;;8.75;3.67;;;;;;;23.96;55.76;100055.47;5054492;28;20032;-66
2023/09/28 09:44:19;;;;;;;8.98;3.53;;;;;;;23.91;54.20;100055.34;5055895;28;20130;-64
2023/09/28 09:46:49;;;;;;;7.72;3.58;;;;;;;23.99;55.70;100057.69;5055162;28;20074;-66
2023/09/28 09:49:18;;;;;;;10.23;4.43;;;;;;;24.05;55.53;100054.00;5055308;28;20325;-64
2023/09/28 09:51:45;;;;;;;6.38;3.60;;;;;;;24.05;55.51;100050.50;5055636;28;20040;-63
2023/09/28 09:54:16;;;;;;;7.32;3.88;;;;;;;24.07;55.48;100059.19;5055510;28;20041;-66
2023/09/28 09:56:49;;;;;;;5.32;3.72;;;;;;;24.13;57.16;100050.09;5054257;28;20032;-66
2023/09/28 09:59:19;;;;;;;6.53;3.47;;;;;;;24.02;56.82;100046.38;5055186;28;20032;-66
2023/09/28 10:01:47;;;;;;;11.95;4.20;;;;;;;24.11;56.51;100054.94;5055559;28;20032;-64
2023/09/28 10:04:18;;;;;;;5.55;3.30;;;;;;;24.07;55.91;100046.47;5054560;28;20416;-64
2023/09/28 10:06:51;;;;;;;4.40;3.47;;;;;;;24.19;56.47;100054.53;5055006;28;20204;-65
2023/09/28 10:09:17;;;;;;;6.57;3.40;;;;;;;24.27;57.11;100043.34;5053587;28;20053;-64
2023/09/28 10:11:46;;;;;;;9.45;3.78;;;;;;;24.24;55.69;100043.78;5054671;28;20036;-64
2023/09/28 10:14:18;;;;;;;9.73;3.72;;;;;;;24.38;56.34;100039.75;5054367;28;20331;-64
2023/09/28 10:16:47;;;;;;;8.48;3.72;;;;;;;24.37;54.34;100024.56;5055288;28;20036;-67
2023/09/28 10:19:17;;;;;;;6.78;3.53;;;;;;;24.45;53.24;100037.69;5055150;28;20033;-66
2023/09/28 10:21:42;;;;;;;9.95;3.65;;;;;;;24.48;53.80;100033.69;5054076;28;20242;-67
2023/09/28 10:24:09;;;;;;;8.93;4.03;;;;;;;24.54;54.34;100037.28;5054646;28;20040;-66
2023/09/28 10:26:35;;;;;;;8.82;4.40;;;;;;;24.64;55.84;100027.44;5056021;28;20044;-64
2023/09/28 10:29:09;;;;;;;6.55;3.92;;;;;;;24.62;54.83;100024.16;5056137;28;20239;-65
2023/09/28 10:31:39;;;;;;;;;;;;;;;24.79;55.06;100029.56;5056547;28;20044;-65
2023/09/28 10:34:06;;;;;;;7.25;3.70;;;;;;;24.83;54.40;100017.97;5054945;28;19924;-66
2023/09/28 10:36:33;;;;;;;6.50;3.95;;;;;;;24.80;56.59;100018.47;5055327;28;20297;-64
2023/09/28 10:39:15;;;;;;;8.20;3.50;;;;;;;24.94;55.39;100018.94;5060879;28;20040;-65
2023/09/28 10:41:52;;;;;;;13.05;3.80;;;;;;;24.94;51.35;100024.34;5057878;28;20035;-65
2023/09/28 10:44:20;;;;;;;11.07;4.50;;;;;;;24.88;52.91;100013.69;5058726;28;20037;-64
2023/09/28 10:46:50;;;;;;;6.65;4.05;;;;;;;24.93;53.69;100011.88;5058144;28;20040;-67
2023/09/28 10:49:22;;;;;;;8.25;3.95;;;;;;;25.02;52.58;100010.44;5058713;28;20048;-65
2023/09/28 10:51:48;;;;;;;7.80;4.10;;;;;;;25.01;50.91;100005.28;5057724;28;20094;-66
2023/09/28 10:54:14;;;;;;;7.68;4.00;;;;;;;24.93;49.88;100011.88;5058759;28;20036;-64
2023/09/28 10:56:40;;;;;;;6.97;3.97;;;;;;;24.91;51.13;100008.59;5058414;28;20339;-64
2023/09/28 10:59:11;;;;;;;15.40;4.72;;;;;;;24.92;53.15;99999.41;5058656;28;20029;-66
2023/09/28 11:01:47;;;;;;;11.15;4.40;;;;;;;24.95;53.59;99998.91;5057651;28;20052;-66
2023/09/28 11:04:13;;;;;;;8.52;4.65;;;;;;;24.98;53.00;99998.47;5058721;28;20037;-64
2023/09/28 11:06:41;;;;;;;6.35;3.80;;;;;;;25.01;52.98;100014.22;5057839;28;20204;-66
2023/09/28 11:09:09;;;;;;;5.97;3.33;;;;;;;25.02;52.47;99994.19;5057707;28;20570;-66
2023/09/28 11:11:38;;;;;;;15.77;4.57;;;;;;;25.06;52.63;99997.22;5057243;28;20044;-66
2023/09/28 11:14:06;;;;;;;4.65;3.50;;;;;;;25.10;51.97;99991.03;5057526;28;20260;-64
2023/09/28 11:16:38;;;;;;;7.28;4.00;;;;;;;25.16;52.79;100001.94;5057341;28;20152;-66
2023/09/28 11:19:04;;;;;;;13.27;4.43;;;;;;;25.25;52.46;99992.31;5056882;28;20074;-65
2023/09/28 11:21:30;;;;;;;5.75;3.35;;;;;;;25.30;52.71;99986.94;5056322;28;20037;-64
2023/09/28 11:23:56;;;;;;;6.47;3.80;;;;;;;25.28;52.08;99981.78;5055273;28;20351;-67
2023/09/28 11:26:22;;;;;;;10.18;4.43;;;;;;;25.34;50.25;99986.19;5056266;28;20214;-64